Terminal Aerodrome Forecast
Issued by NWS

Home | Current Version | Previous Version | Text Only | Print | Product List | Glossary On
Versions: 1 2 3 4 5 6 7 8 9 10 11 12 13 14 15 16 17 18 19 20 21 22 23
000
FTAK31 PANC 272335
TAFATK
TAF
PATK 272335Z 2800/2824 02004KT P6SM BKN200
     FM281000 02004KT P6SM BKN070
     FM281500 VRB03KT P6SM VCSH BKN050
     FM282100 VRB03KT 3SM -SN OVC020=

USA.gov is the U.S. government's official web portal to all federal, state and local government web resources and services.